sensor_id;sensor_type;location;lat;lon;timestamp;temperature;humidity
16781;DHT22;8507;50.056;8.248;2023-07-31T00:01:55;19.50;99.90
16781;DHT22;8507;50.056;8.248;2023-07-31T00:04:21;19.40;99.90
16781;DHT22;8507;50.056;8.248;2023-07-31T00:06:46;19.20;99.90
16781;DHT22;8507;50.056;8.248;2023-07-31T00:09:12;19.20;99.90
16781;DHT22;8507;50.056;8.248;2023-07-31T00:11:38;19.30;99.90
16781;DHT22;8507;50.056;8.248;2023-07-31T00:14:03;19.30;99.90
16781;DHT22;8507;50.056;8.248;2023-07-31T00:16:30;19.30;99.90
16781;DHT22;8507;50.056;8.248;2023-07-31T00:18:55;19.30;99.90
16781;DHT22;8507;50.056;8.248;2023-07-31T00:21:21;19.30;99.90
16781;DHT22;8507;50.056;8.248;2023-07-31T00:23:46;19.20;99.90
16781;DHT22;8507;50.056;8.248;2023-07-31T00:26:12;19.30;99.90
16781;DHT22;8507;50.056;8.248;2023-07-31T00:28:37;19.20;99.90
16781;DHT22;8507;50.056;8.248;2023-07-31T00:31:03;19.10;99.90
16781;DHT22;8507;50.056;8.248;2023-07-31T00:33:29;19.20;99.90
16781;DHT22;8507;50.056;8.248;2023-07-31T00:35:55;19.20;99.90
16781;DHT22;8507;50.056;8.248;2023-07-31T00:38:20;19.20;99.90
16781;DHT22;8507;50.056;8.248;2023-07-31T00:40:46;19.10;99.90
16781;DHT22;8507;50.056;8.248;2023-07-31T00:43:11;19.10;99.90
16781;DHT22;8507;50.056;8.248;2023-07-31T00:45:37;19.20;99.90
16781;DHT22;8507;50.056;8.248;2023-07-31T00:48:02;19.10;99.90
16781;DHT22;8507;50.056;8.248;2023-07-31T00:50:28;19.10;99.90
16781;DHT22;8507;50.056;8.248;2023-07-31T00:52:54;18.90;99.90
16781;DHT22;8507;50.056;8.248;2023-07-31T00:55:20;18.90;99.90
16781;DHT22;8507;50.056;8.248;2023-07-31T00:57:47;18.90;99.90
16781;DHT22;8507;50.056;8.248;2023-07-31T01:00:13;18.90;99.90
16781;DHT22;8507;50.056;8.248;2023-07-31T01:02:38;18.90;99.90
16781;DHT22;8507;50.056;8.248;2023-07-31T01:05:04;18.80;99.90
16781;DHT22;8507;50.056;8.248;2023-07-31T01:07:35;18.80;99.90
16781;DHT22;8507;50.056;8.248;2023-07-31T01:10:16;18.80;99.90
16781;DHT22;8507;50.056;8.248;2023-07-31T01:12:45;18.70;99.90
16781;DHT22;8507;50.056;8.248;2023-07-31T01:15:10;18.80;99.90
16781;DHT22;8507;50.056;8.248;2023-07-31T01:17:39;18.80;99.90
16781;DHT22;8507;50.056;8.248;2023-07-31T01:20:26;18.80;99.90
16781;DHT22;8507;50.056;8.248;2023-07-31T01:23:16;18.80;99.90
16781;DHT22;8507;50.056;8.248;2023-07-31T01:31:26;18.70;99.90
16781;DHT22;8507;50.056;8.248;2023-07-31T01:33:56;18.80;99.90
16781;DHT22;8507;50.056;8.248;2023-07-31T01:36:22;18.80;99.90
16781;DHT22;8507;50.056;8.248;2023-07-31T01:38:48;18.80;99.90
16781;DHT22;8507;50.056;8.248;2023-07-31T01:41:13;18.80;99.90
16781;DHT22;8507;50.056;8.248;2023-07-31T01:43:39;18.80;99.90
16781;DHT22;8507;50.056;8.248;2023-07-31T01:46:04;18.80;99.90
16781;DHT22;8507;50.056;8.248;2023-07-31T01:48:30;18.80;99.90
16781;DHT22;8507;50.056;8.248;2023-07-31T01:51:01;18.80;99.90
16781;DHT22;8507;50.056;8.248;2023-07-31T01:53:27;18.80;99.90
16781;DHT22;8507;50.056;8.248;2023-07-31T01:55:52;18.80;99.90
16781;DHT22;8507;50.056;8.248;2023-07-31T01:58:18;18.90;99.90
16781;DHT22;8507;50.056;8.248;2023-07-31T02:00:43;18.90;99.90
16781;DHT22;8507;50.056;8.248;2023-07-31T02:03:09;19.00;99.90
16781;DHT22;8507;50.056;8.248;2023-07-31T02:05:34;19.00;99.90
16781;DHT22;8507;50.056;8.248;2023-07-31T02:08:00;19.00;99.90
16781;DHT22;8507;50.056;8.248;2023-07-31T02:10:25;19.00;99.90
16781;DHT22;8507;50.056;8.248;2023-07-31T02:12:51;19.00;99.90
16781;DHT22;8507;50.056;8.248;2023-07-31T02:15:16;19.00;99.90
16781;DHT22;8507;50.056;8.248;2023-07-31T02:17:42;19.00;99.90
16781;DHT22;8507;50.056;8.248;2023-07-31T02:20:08;19.00;99.90
16781;DHT22;8507;50.056;8.248;2023-07-31T02:22:33;19.00;99.90
16781;DHT22;8507;50.056;8.248;2023-07-31T02:24:59;19.00;99.90
16781;DHT22;8507;50.056;8.248;2023-07-31T02:27:24;19.00;99.90
16781;DHT22;8507;50.056;8.248;2023-07-31T02:29:52;19.00;99.90
16781;DHT22;8507;50.056;8.248;2023-07-31T02:32:18;18.80;99.90
16781;DHT22;8507;50.056;8.248;2023-07-31T02:34:43;18.80;99.90
16781;DHT22;8507;50.056;8.248;2023-07-31T02:37:09;18.80;99.90
16781;DHT22;8507;50.056;8.248;2023-07-31T02:39:34;18.90;99.90
16781;DHT22;8507;50.056;8.248;2023-07-31T02:42:00;18.90;99.90
16781;DHT22;8507;50.056;8.248;2023-07-31T02:44:26;18.90;99.90
16781;DHT22;8507;50.056;8.248;2023-07-31T02:46:51;18.90;99.90
16781;DHT22;8507;50.056;8.248;2023-07-31T02:49:17;19.00;99.90
16781;DHT22;8507;50.056;8.248;2023-07-31T02:51:42;18.90;99.90
16781;DHT22;8507;50.056;8.248;2023-07-31T02:54:08;18.90;99.90
16781;DHT22;8507;50.056;8.248;2023-07-31T02:56:33;18.90;99.90
16781;DHT22;8507;50.056;8.248;2023-07-31T02:58:59;18.90;99.90
16781;DHT22;8507;50.056;8.248;2023-07-31T03:01:24;18.90;99.90
16781;DHT22;8507;50.056;8.248;2023-07-31T03:03:49;18.80;99.90
16781;DHT22;8507;50.056;8.248;2023-07-31T03:06:15;18.80;99.90
16781;DHT22;8507;50.056;8.248;2023-07-31T03:08:40;18.80;99.90
16781;DHT22;8507;50.056;8.248;2023-07-31T03:11:06;18.70;99.90
16781;DHT22;8507;50.056;8.248;2023-07-31T03:13:31;18.70;99.90
16781;DHT22;8507;50.056;8.248;2023-07-31T03:15:57;18.40;99.90
16781;DHT22;8507;50.056;8.248;2023-07-31T03:18:22;18.50;99.90
16781;DHT22;8507;50.056;8.248;2023-07-31T03:20:48;18.30;99.90
16781;DHT22;8507;50.056;8.248;2023-07-31T03:23:13;18.00;99.90
16781;DHT22;8507;50.056;8.248;2023-07-31T03:25:41;17.90;99.90
16781;DHT22;8507;50.056;8.248;2023-07-31T03:28:07;17.90;99.90
16781;DHT22;8507;50.056;8.248;2023-07-31T03:30:35;17.80;99.90
16781;DHT22;8507;50.056;8.248;2023-07-31T03:33:02;18.00;99.90
16781;DHT22;8507;50.056;8.248;2023-07-31T03:35:27;18.20;99.90
16781;DHT22;8507;50.056;8.248;2023-07-31T03:37:53;18.30;99.90
16781;DHT22;8507;50.056;8.248;2023-07-31T03:40:18;18.20;99.90
16781;DHT22;8507;50.056;8.248;2023-07-31T03:42:44;18.30;99.90
16781;DHT22;8507;50.056;8.248;2023-07-31T03:45:10;18.30;99.90
16781;DHT22;8507;50.056;8.248;2023-07-31T03:47:35;18.10;99.90
16781;DHT22;8507;50.056;8.248;2023-07-31T03:50:01;18.20;99.90
16781;DHT22;8507;50.056;8.248;2023-07-31T03:52:26;18.20;99.90
16781;DHT22;8507;50.056;8.248;2023-07-31T03:54:52;18.10;99.90
16781;DHT22;8507;50.056;8.248;2023-07-31T03:57:17;18.20;99.90
16781;DHT22;8507;50.056;8.248;2023-07-31T03:59:43;18.20;99.90
16781;DHT22;8507;50.056;8.248;2023-07-31T04:02:08;18.40;99.90
16781;DHT22;8507;50.056;8.248;2023-07-31T04:04:34;18.50;99.90
16781;DHT22;8507;50.056;8.248;2023-07-31T04:06:59;18.60;99.90
16781;DHT22;8507;50.056;8.248;2023-07-31T04:09:25;18.50;99.90
16781;DHT22;8507;50.056;8.248;2023-07-31T04:11:50;18.70;99.90
16781;DHT22;8507;50.056;8.248;2023-07-31T04:14:16;18.80;99.90
16781;DHT22;8507;50.056;8.248;2023-07-31T04:16:41;18.80;99.90
16781;DHT22;8507;50.056;8.248;2023-07-31T04:19:07;18.70;99.90
16781;DHT22;8507;50.056;8.248;2023-07-31T04:21:32;18.70;99.90
16781;DHT22;8507;50.056;8.248;2023-07-31T04:23:58;18.60;99.90
16781;DHT22;8507;50.056;8.248;2023-07-31T04:26:23;18.70;99.90
16781;DHT22;8507;50.056;8.248;2023-07-31T04:28:49;18.80;99.90
16781;DHT22;8507;50.056;8.248;2023-07-31T04:31:14;18.80;99.90
16781;DHT22;8507;50.056;8.248;2023-07-31T04:33:40;18.80;99.90
16781;DHT22;8507;50.056;8.248;2023-07-31T04:36:06;18.90;99.90
16781;DHT22;8507;50.056;8.248;2023-07-31T04:38:31;18.90;99.90
16781;DHT22;8507;50.056;8.248;2023-07-31T04:40:57;19.00;99.90
16781;DHT22;8507;50.056;8.248;2023-07-31T04:43:22;19.00;99.90
16781;DHT22;8507;50.056;8.248;2023-07-31T04:45:48;18.90;99.90
16781;DHT22;8507;50.056;8.248;2023-07-31T04:48:14;19.00;99.90
16781;DHT22;8507;50.056;8.248;2023-07-31T04:50:40;19.10;99.90
16781;DHT22;8507;50.056;8.248;2023-07-31T04:53:05;19.10;99.90
16781;DHT22;8507;50.056;8.248;2023-07-31T04:55:31;19.10;99.90
16781;DHT22;8507;50.056;8.248;2023-07-31T04:57:59;19.20;99.90
16781;DHT22;8507;50.056;8.248;2023-07-31T05:00:24;19.10;99.90
16781;DHT22;8507;50.056;8.248;2023-07-31T05:02:50;19.10;99.90
16781;DHT22;8507;50.056;8.248;2023-07-31T05:05:15;19.20;99.90
16781;DHT22;8507;50.056;8.248;2023-07-31T05:07:41;19.20;99.90
16781;DHT22;8507;50.056;8.248;2023-07-31T05:10:07;19.10;99.90
16781;DHT22;8507;50.056;8.248;2023-07-31T05:12:32;19.10;99.90
16781;DHT22;8507;50.056;8.248;2023-07-31T05:14:58;19.20;99.90
16781;DHT22;8507;50.056;8.248;2023-07-31T05:17:23;19.30;99.90
16781;DHT22;8507;50.056;8.248;2023-07-31T05:19:49;19.30;99.90
16781;DHT22;8507;50.056;8.248;2023-07-31T05:22:14;19.40;99.90
16781;DHT22;8507;50.056;8.248;2023-07-31T05:24:40;19.40;99.90
16781;DHT22;8507;50.056;8.248;2023-07-31T05:27:06;19.50;99.90
16781;DHT22;8507;50.056;8.248;2023-07-31T05:29:31;19.40;99.90
16781;DHT22;8507;50.056;8.248;2023-07-31T05:31:57;19.50;99.90
16781;DHT22;8507;50.056;8.248;2023-07-31T05:34:22;19.50;99.90
16781;DHT22;8507;50.056;8.248;2023-07-31T05:36:48;19.40;99.90
16781;DHT22;8507;50.056;8.248;2023-07-31T05:39:13;19.50;99.90
16781;DHT22;8507;50.056;8.248;2023-07-31T05:41:39;19.60;99.90
16781;DHT22;8507;50.056;8.248;2023-07-31T05:44:04;19.70;99.90
16781;DHT22;8507;50.056;8.248;2023-07-31T05:46:30;19.60;99.90
16781;DHT22;8507;50.056;8.248;2023-07-31T05:48:56;19.70;99.90
16781;DHT22;8507;50.056;8.248;2023-07-31T05:51:22;19.90;99.90
16781;DHT22;8507;50.056;8.248;2023-07-31T05:53:47;19.90;99.90
16781;DHT22;8507;50.056;8.248;2023-07-31T05:56:13;20.20;99.90
16781;DHT22;8507;50.056;8.248;2023-07-31T05:58:38;20.40;99.90
16781;DHT22;8507;50.056;8.248;2023-07-31T06:01:04;20.50;99.90
16781;DHT22;8507;50.056;8.248;2023-07-31T06:03:30;20.60;99.90
16781;DHT22;8507;50.056;8.248;2023-07-31T06:05:55;20.60;99.90
16781;DHT22;8507;50.056;8.248;2023-07-31T06:08:21;20.60;99.90
16781;DHT22;8507;50.056;8.248;2023-07-31T06:10:46;20.60;99.90
16781;DHT22;8507;50.056;8.248;2023-07-31T06:13:12;20.70;99.90
16781;DHT22;8507;50.056;8.248;2023-07-31T06:15:37;20.70;99.90
16781;DHT22;8507;50.056;8.248;2023-07-31T06:18:03;20.70;99.90
16781;DHT22;8507;50.056;8.248;2023-07-31T06:20:30;20.80;99.90
16781;DHT22;8507;50.056;8.248;2023-07-31T06:22:55;20.80;99.90
16781;DHT22;8507;50.056;8.248;2023-07-31T06:25:21;20.80;99.90
16781;DHT22;8507;50.056;8.248;2023-07-31T06:27:46;20.70;99.90
16781;DHT22;8507;50.056;8.248;2023-07-31T06:30:12;20.60;99.90
16781;DHT22;8507;50.056;8.248;2023-07-31T06:32:37;20.50;99.90
16781;DHT22;8507;50.056;8.248;2023-07-31T06:35:03;20.30;99.90
16781;DHT22;8507;50.056;8.248;2023-07-31T06:37:28;20.10;99.90
16781;DHT22;8507;50.056;8.248;2023-07-31T06:39:54;20.10;99.90
16781;DHT22;8507;50.056;8.248;2023-07-31T06:42:19;20.30;99.90
16781;DHT22;8507;50.056;8.248;2023-07-31T06:44:45;20.60;99.90
16781;DHT22;8507;50.056;8.248;2023-07-31T06:47:11;20.90;99.90
16781;DHT22;8507;50.056;8.248;2023-07-31T06:49:36;21.00;99.90
16781;DHT22;8507;50.056;8.248;2023-07-31T06:52:02;20.90;99.90
16781;DHT22;8507;50.056;8.248;2023-07-31T06:54:28;20.80;99.90
16781;DHT22;8507;50.056;8.248;2023-07-31T06:56:53;20.80;99.90
16781;DHT22;8507;50.056;8.248;2023-07-31T06:59:19;20.60;99.90
16781;DHT22;8507;50.056;8.248;2023-07-31T07:01:44;20.70;99.90
16781;DHT22;8507;50.056;8.248;2023-07-31T07:04:10;20.90;99.90
16781;DHT22;8507;50.056;8.248;2023-07-31T07:06:35;21.00;99.90
16781;DHT22;8507;50.056;8.248;2023-07-31T07:09:01;21.30;99.90
16781;DHT22;8507;50.056;8.248;2023-07-31T07:11:26;21.40;99.90
16781;DHT22;8507;50.056;8.248;2023-07-31T07:13:52;21.70;99.90
16781;DHT22;8507;50.056;8.248;2023-07-31T07:16:17;22.10;99.90
16781;DHT22;8507;50.056;8.248;2023-07-31T07:18:43;22.40;99.90
16781;DHT22;8507;50.056;8.248;2023-07-31T07:21:08;22.60;99.90
16781;DHT22;8507;50.056;8.248;2023-07-31T07:23:34;22.70;99.90
16781;DHT22;8507;50.056;8.248;2023-07-31T07:26:00;22.60;99.90
16781;DHT22;8507;50.056;8.248;2023-07-31T07:28:25;22.40;99.90
16781;DHT22;8507;50.056;8.248;2023-07-31T07:30:52;22.30;99.90
16781;DHT22;8507;50.056;8.248;2023-07-31T07:33:18;22.20;99.90
16781;DHT22;8507;50.056;8.248;2023-07-31T07:35:44;22.30;99.90
16781;DHT22;8507;50.056;8.248;2023-07-31T07:38:10;22.30;99.90
16781;DHT22;8507;50.056;8.248;2023-07-31T07:40:39;22.30;99.90
16781;DHT22;8507;50.056;8.248;2023-07-31T07:43:05;22.20;99.90
16781;DHT22;8507;50.056;8.248;2023-07-31T07:45:30;22.20;99.90
16781;DHT22;8507;50.056;8.248;2023-07-31T07:47:56;22.20;99.90
16781;DHT22;8507;50.056;8.248;2023-07-31T07:50:21;22.20;99.90
16781;DHT22;8507;50.056;8.248;2023-07-31T07:52:47;22.00;99.90
16781;DHT22;8507;50.056;8.248;2023-07-31T07:55:12;21.90;99.90
16781;DHT22;8507;50.056;8.248;2023-07-31T07:57:38;21.90;99.90
16781;DHT22;8507;50.056;8.248;2023-07-31T08:00:04;21.90;99.90
16781;DHT22;8507;50.056;8.248;2023-07-31T08:02:31;21.80;99.90
16781;DHT22;8507;50.056;8.248;2023-07-31T08:04:56;21.60;99.90
16781;DHT22;8507;50.056;8.248;2023-07-31T08:07:22;21.50;99.90
16781;DHT22;8507;50.056;8.248;2023-07-31T08:09:47;21.70;99.90
16781;DHT22;8507;50.056;8.248;2023-07-31T08:12:13;21.90;99.90
16781;DHT22;8507;50.056;8.248;2023-07-31T08:14:38;22.10;99.90
16781;DHT22;8507;50.056;8.248;2023-07-31T08:17:04;22.00;99.90
16781;DHT22;8507;50.056;8.248;2023-07-31T08:19:30;22.10;99.90
16781;DHT22;8507;50.056;8.248;2023-07-31T08:21:55;22.10;99.90
16781;DHT22;8507;50.056;8.248;2023-07-31T08:24:21;22.10;99.90
16781;DHT22;8507;50.056;8.248;2023-07-31T08:26:47;22.10;99.90
16781;DHT22;8507;50.056;8.248;2023-07-31T08:29:12;22.20;99.90
16781;DHT22;8507;50.056;8.248;2023-07-31T08:31:38;22.30;99.90
16781;DHT22;8507;50.056;8.248;2023-07-31T08:34:03;22.30;99.90
16781;DHT22;8507;50.056;8.248;2023-07-31T08:36:29;22.60;99.90
16781;DHT22;8507;50.056;8.248;2023-07-31T08:38:54;22.80;99.90
16781;DHT22;8507;50.056;8.248;2023-07-31T08:41:20;22.70;99.90
16781;DHT22;8507;50.056;8.248;2023-07-31T08:43:46;22.50;99.90
16781;DHT22;8507;50.056;8.248;2023-07-31T08:46:12;22.50;99.90
16781;DHT22;8507;50.056;8.248;2023-07-31T08:48:41;22.60;99.90
16781;DHT22;8507;50.056;8.248;2023-07-31T08:51:07;22.50;99.90
16781;DHT22;8507;50.056;8.248;2023-07-31T08:53:33;22.70;99.90
16781;DHT22;8507;50.056;8.248;2023-07-31T08:55:59;22.70;99.90
16781;DHT22;8507;50.056;8.248;2023-07-31T08:58:25;22.80;99.90
16781;DHT22;8507;50.056;8.248;2023-07-31T09:00:53;22.80;99.90
16781;DHT22;8507;50.056;8.248;2023-07-31T09:03:21;22.60;99.90
16781;DHT22;8507;50.056;8.248;2023-07-31T09:05:48;22.70;99.90
16781;DHT22;8507;50.056;8.248;2023-07-31T09:08:18;22.80;99.90
16781;DHT22;8507;50.056;8.248;2023-07-31T09:10:45;22.90;99.90
16781;DHT22;8507;50.056;8.248;2023-07-31T09:13:14;22.90;99.90
16781;DHT22;8507;50.056;8.248;2023-07-31T09:15:43;23.00;99.90
16781;DHT22;8507;50.056;8.248;2023-07-31T09:18:09;23.00;99.90
16781;DHT22;8507;50.056;8.248;2023-07-31T09:20:35;23.10;99.90
16781;DHT22;8507;50.056;8.248;2023-07-31T09:23:09;23.00;99.90
16781;DHT22;8507;50.056;8.248;2023-07-31T09:25:36;22.90;99.90
16781;DHT22;8507;50.056;8.248;2023-07-31T09:28:04;22.90;99.90
16781;DHT22;8507;50.056;8.248;2023-07-31T09:30:30;22.90;99.90
16781;DHT22;8507;50.056;8.248;2023-07-31T09:33:04;22.70;99.90
16781;DHT22;8507;50.056;8.248;2023-07-31T09:35:33;22.60;99.90
16781;DHT22;8507;50.056;8.248;2023-07-31T09:38:08;22.60;99.90
16781;DHT22;8507;50.056;8.248;2023-07-31T09:40:36;22.30;99.90
16781;DHT22;8507;50.056;8.248;2023-07-31T09:43:03;22.80;99.90
16781;DHT22;8507;50.056;8.248;2023-07-31T09:45:30;23.10;99.90
16781;DHT22;8507;50.056;8.248;2023-07-31T09:47:56;23.30;99.90
16781;DHT22;8507;50.056;8.248;2023-07-31T09:50:23;23.30;99.90
16781;DHT22;8507;50.056;8.248;2023-07-31T09:52:50;23.50;99.90
16781;DHT22;8507;50.056;8.248;2023-07-31T09:55:18;23.80;99.90
16781;DHT22;8507;50.056;8.248;2023-07-31T09:57:46;23.80;99.90
16781;DHT22;8507;50.056;8.248;2023-07-31T10:00:13;23.70;99.90
16781;DHT22;8507;50.056;8.248;2023-07-31T10:02:40;23.50;99.90
16781;DHT22;8507;50.056;8.248;2023-07-31T10:05:07;23.30;99.90
16781;DHT22;8507;50.056;8.248;2023-07-31T10:07:38;23.10;99.90
16781;DHT22;8507;50.056;8.248;2023-07-31T10:10:07;23.00;99.90
16781;DHT22;8507;50.056;8.248;2023-07-31T10:12:33;23.10;99.90
16781;DHT22;8507;50.056;8.248;2023-07-31T10:15:00;23.20;99.90
16781;DHT22;8507;50.056;8.248;2023-07-31T10:17:26;23.30;99.90
16781;DHT22;8507;50.056;8.248;2023-07-31T10:19:53;23.40;99.90
16781;DHT22;8507;50.056;8.248;2023-07-31T10:22:20;23.50;99.90
16781;DHT22;8507;50.056;8.248;2023-07-31T10:24:46;23.50;99.90
16781;DHT22;8507;50.056;8.248;2023-07-31T10:27:13;23.60;99.90
16781;DHT22;8507;50.056;8.248;2023-07-31T10:29:40;23.40;99.90
16781;DHT22;8507;50.056;8.248;2023-07-31T10:32:07;23.40;99.90
16781;DHT22;8507;50.056;8.248;2023-07-31T10:34:36;23.50;99.90
16781;DHT22;8507;50.056;8.248;2023-07-31T10:37:27;23.70;99.90
16781;DHT22;8507;50.056;8.248;2023-07-31T10:40:16;23.80;99.90
16781;DHT22;8507;50.056;8.248;2023-07-31T10:42:48;24.00;99.90
16781;DHT22;8507;50.056;8.248;2023-07-31T10:45:23;24.10;99.90
16781;DHT22;8507;50.056;8.248;2023-07-31T10:47:50;24.10;99.90
16781;DHT22;8507;50.056;8.248;2023-07-31T10:50:23;23.90;99.90
16781;DHT22;8507;50.056;8.248;2023-07-31T10:52:54;24.00;99.90
16781;DHT22;8507;50.056;8.248;2023-07-31T10:55:42;24.10;99.90
16781;DHT22;8507;50.056;8.248;2023-07-31T10:58:13;24.40;99.90
16781;DHT22;8507;50.056;8.248;2023-07-31T11:00:43;24.70;99.90
16781;DHT22;8507;50.056;8.248;2023-07-31T11:03:16;24.80;99.90
16781;DHT22;8507;50.056;8.248;2023-07-31T11:06:10;24.80;99.90
16781;DHT22;8507;50.056;8.248;2023-07-31T11:08:40;24.70;99.90
16781;DHT22;8507;50.056;8.248;2023-07-31T11:11:08;24.60;99.90
16781;DHT22;8507;50.056;8.248;2023-07-31T11:16:05;24.70;99.90
16781;DHT22;8507;50.056;8.248;2023-07-31T11:18:30;24.80;99.90
16781;DHT22;8507;50.056;8.248;2023-07-31T11:20:56;24.70;99.90
16781;DHT22;8507;50.056;8.248;2023-07-31T11:23:22;24.90;99.90
16781;DHT22;8507;50.056;8.248;2023-07-31T11:25:49;25.00;99.90
16781;DHT22;8507;50.056;8.248;2023-07-31T11:28:16;25.00;99.90
16781;DHT22;8507;50.056;8.248;2023-07-31T11:30:43;25.20;99.90
16781;DHT22;8507;50.056;8.248;2023-07-31T11:33:10;25.30;99.90
16781;DHT22;8507;50.056;8.248;2023-07-31T11:35:44;25.40;99.90
16781;DHT22;8507;50.056;8.248;2023-07-31T11:38:11;25.80;99.90
16781;DHT22;8507;50.056;8.248;2023-07-31T11:40:43;26.20;99.90
16781;DHT22;8507;50.056;8.248;2023-07-31T11:43:10;26.10;99.90
16781;DHT22;8507;50.056;8.248;2023-07-31T11:45:37;25.80;99.90
16781;DHT22;8507;50.056;8.248;2023-07-31T11:48:04;25.70;99.90
16781;DHT22;8507;50.056;8.248;2023-07-31T11:50:33;25.80;99.90
16781;DHT22;8507;50.056;8.248;2023-07-31T11:53:04;25.80;99.90
16781;DHT22;8507;50.056;8.248;2023-07-31T11:55:32;25.40;99.90
16781;DHT22;8507;50.056;8.248;2023-07-31T11:57:58;25.60;99.90
16781;DHT22;8507;50.056;8.248;2023-07-31T12:00:25;25.40;99.90
16781;DHT22;8507;50.056;8.248;2023-07-31T12:02:51;25.40;99.90
16781;DHT22;8507;50.056;8.248;2023-07-31T12:05:17;25.50;99.90
16781;DHT22;8507;50.056;8.248;2023-07-31T12:07:53;25.60;99.90
16781;DHT22;8507;50.056;8.248;2023-07-31T12:10:30;25.60;99.90
16781;DHT22;8507;50.056;8.248;2023-07-31T12:15:31;25.40;99.90
16781;DHT22;8507;50.056;8.248;2023-07-31T12:17:57;25.40;99.90
16781;DHT22;8507;50.056;8.248;2023-07-31T12:20:23;25.30;99.90
16781;DHT22;8507;50.056;8.248;2023-07-31T12:22:48;25.10;99.90
16781;DHT22;8507;50.056;8.248;2023-07-31T12:25:17;25.00;99.90
16781;DHT22;8507;50.056;8.248;2023-07-31T12:27:45;25.00;99.90
16781;DHT22;8507;50.056;8.248;2023-07-31T12:30:32;25.30;99.90
16781;DHT22;8507;50.056;8.248;2023-07-31T12:33:03;25.90;99.90
16781;DHT22;8507;50.056;8.248;2023-07-31T12:35:35;26.30;99.90
16781;DHT22;8507;50.056;8.248;2023-07-31T12:38:04;26.60;99.90
16781;DHT22;8507;50.056;8.248;2023-07-31T12:40:29;27.00;99.90
16781;DHT22;8507;50.056;8.248;2023-07-31T12:42:55;27.20;99.90
16781;DHT22;8507;50.056;8.248;2023-07-31T12:45:20;27.30;99.90
16781;DHT22;8507;50.056;8.248;2023-07-31T12:47:47;27.30;99.90
16781;DHT22;8507;50.056;8.248;2023-07-31T12:50:12;26.90;99.90
16781;DHT22;8507;50.056;8.248;2023-07-31T12:52:38;26.60;99.90
16781;DHT22;8507;50.056;8.248;2023-07-31T12:55:03;26.40;99.90
16781;DHT22;8507;50.056;8.248;2023-07-31T12:57:30;26.80;99.90
16781;DHT22;8507;50.056;8.248;2023-07-31T12:59:55;27.20;99.90
16781;DHT22;8507;50.056;8.248;2023-07-31T13:02:21;27.20;99.90
16781;DHT22;8507;50.056;8.248;2023-07-31T13:04:47;27.00;99.90
16781;DHT22;8507;50.056;8.248;2023-07-31T13:07:12;26.70;99.90
16781;DHT22;8507;50.056;8.248;2023-07-31T13:09:38;26.30;99.90
16781;DHT22;8507;50.056;8.248;2023-07-31T13:12:03;26.60;99.90
16781;DHT22;8507;50.056;8.248;2023-07-31T13:14:29;26.80;99.90
16781;DHT22;8507;50.056;8.248;2023-07-31T13:16:54;26.70;99.90
16781;DHT22;8507;50.056;8.248;2023-07-31T13:19:20;26.80;99.90
16781;DHT22;8507;50.056;8.248;2023-07-31T13:21:45;26.80;99.90
16781;DHT22;8507;50.056;8.248;2023-07-31T13:24:11;26.50;99.90
16781;DHT22;8507;50.056;8.248;2023-07-31T13:26:36;26.20;99.90
16781;DHT22;8507;50.056;8.248;2023-07-31T13:29:02;25.80;99.90
16781;DHT22;8507;50.056;8.248;2023-07-31T13:31:28;25.60;99.90
16781;DHT22;8507;50.056;8.248;2023-07-31T13:33:53;25.50;99.90
16781;DHT22;8507;50.056;8.248;2023-07-31T13:36:19;25.20;99.90
16781;DHT22;8507;50.056;8.248;2023-07-31T13:38:44;25.20;99.90
16781;DHT22;8507;50.056;8.248;2023-07-31T13:41:10;25.30;99.90
16781;DHT22;8507;50.056;8.248;2023-07-31T13:43:35;24.90;99.90
16781;DHT22;8507;50.056;8.248;2023-07-31T13:46:01;24.90;99.90
16781;DHT22;8507;50.056;8.248;2023-07-31T13:48:34;24.70;99.90
16781;DHT22;8507;50.056;8.248;2023-07-31T13:50:59;24.50;99.90
16781;DHT22;8507;50.056;8.248;2023-07-31T13:53:25;24.30;99.90
16781;DHT22;8507;50.056;8.248;2023-07-31T13:55:50;24.10;99.90
16781;DHT22;8507;50.056;8.248;2023-07-31T13:58:16;23.90;99.90
16781;DHT22;8507;50.056;8.248;2023-07-31T14:00:42;23.70;99.90
16781;DHT22;8507;50.056;8.248;2023-07-31T14:03:08;23.60;99.90
16781;DHT22;8507;50.056;8.248;2023-07-31T14:05:33;23.70;99.90
16781;DHT22;8507;50.056;8.248;2023-07-31T14:07:59;23.90;99.90
16781;DHT22;8507;50.056;8.248;2023-07-31T14:10:24;24.00;99.90
16781;DHT22;8507;50.056;8.248;2023-07-31T14:12:50;24.10;99.90
16781;DHT22;8507;50.056;8.248;2023-07-31T14:15:15;24.20;99.90
16781;DHT22;8507;50.056;8.248;2023-07-31T14:17:41;24.30;99.90
16781;DHT22;8507;50.056;8.248;2023-07-31T14:20:07;24.40;99.90
16781;DHT22;8507;50.056;8.248;2023-07-31T14:22:32;24.50;99.90
16781;DHT22;8507;50.056;8.248;2023-07-31T14:24:59;24.60;99.90
16781;DHT22;8507;50.056;8.248;2023-07-31T14:27:25;24.50;99.90
16781;DHT22;8507;50.056;8.248;2023-07-31T14:29:50;24.30;99.90
16781;DHT22;8507;50.056;8.248;2023-07-31T14:32:16;24.50;99.90
16781;DHT22;8507;50.056;8.248;2023-07-31T14:34:41;24.60;99.90
16781;DHT22;8507;50.056;8.248;2023-07-31T14:37:07;24.70;99.90
16781;DHT22;8507;50.056;8.248;2023-07-31T14:39:32;24.70;99.90
16781;DHT22;8507;50.056;8.248;2023-07-31T14:41:58;24.60;99.90
16781;DHT22;8507;50.056;8.248;2023-07-31T14:44:23;24.50;99.90
16781;DHT22;8507;50.056;8.248;2023-07-31T14:46:49;24.30;99.90
16781;DHT22;8507;50.056;8.248;2023-07-31T14:49:14;24.10;99.90
16781;DHT22;8507;50.056;8.248;2023-07-31T14:51:40;23.90;99.90
16781;DHT22;8507;50.056;8.248;2023-07-31T14:54:05;23.70;99.90
16781;DHT22;8507;50.056;8.248;2023-07-31T14:56:31;23.70;99.90
16781;DHT22;8507;50.056;8.248;2023-07-31T14:58:57;23.80;99.90
16781;DHT22;8507;50.056;8.248;2023-07-31T15:01:23;23.90;99.90
16781;DHT22;8507;50.056;8.248;2023-07-31T15:03:49;23.60;99.90
16781;DHT22;8507;50.056;8.248;2023-07-31T15:06:14;23.50;99.90
16781;DHT22;8507;50.056;8.248;2023-07-31T15:08:39;23.30;99.90
16781;DHT22;8507;50.056;8.248;2023-07-31T15:11:06;23.20;99.90
16781;DHT22;8507;50.056;8.248;2023-07-31T15:13:32;23.10;99.90
16781;DHT22;8507;50.056;8.248;2023-07-31T15:15:58;23.30;99.90
16781;DHT22;8507;50.056;8.248;2023-07-31T15:18:23;23.30;99.90
16781;DHT22;8507;50.056;8.248;2023-07-31T15:20:49;23.10;99.90
16781;DHT22;8507;50.056;8.248;2023-07-31T15:23:14;22.90;99.90
16781;DHT22;8507;50.056;8.248;2023-07-31T15:25:40;22.80;99.90
16781;DHT22;8507;50.056;8.248;2023-07-31T15:28:05;22.60;99.90
16781;DHT22;8507;50.056;8.248;2023-07-31T15:30:32;22.50;99.90
16781;DHT22;8507;50.056;8.248;2023-07-31T15:32:59;22.60;99.90
16781;DHT22;8507;50.056;8.248;2023-07-31T15:35:24;22.60;99.90
16781;DHT22;8507;50.056;8.248;2023-07-31T15:37:50;22.40;99.90
16781;DHT22;8507;50.056;8.248;2023-07-31T15:40:15;22.20;99.90
16781;DHT22;8507;50.056;8.248;2023-07-31T15:42:41;22.10;99.90
16781;DHT22;8507;50.056;8.248;2023-07-31T15:45:08;22.00;99.90
16781;DHT22;8507;50.056;8.248;2023-07-31T15:47:34;21.90;99.90
16781;DHT22;8507;50.056;8.248;2023-07-31T15:49:59;21.80;99.90
16781;DHT22;8507;50.056;8.248;2023-07-31T15:52:25;21.80;99.90